sensor_id;sensor_type;location;lat;lon;timestamp;P1;durP1;ratioP1;P2;durP2;ratioP2
67528;SDS011;54366;51.980;5.856;2023-09-12T00:01:59;21.13;;;19.15;;
67528;SDS011;54366;51.980;5.856;2023-09-12T00:04:32;18.02;;;16.27;;
67528;SDS011;54366;51.980;5.856;2023-09-12T00:07:05;19.50;;;17.50;;
67528;SDS011;54366;51.980;5.856;2023-09-12T00:09:38;20.00;;;18.00;;
67528;SDS011;54366;51.980;5.856;2023-09-12T00:12:13;20.53;;;18.53;;
67528;SDS011;54366;51.980;5.856;2023-09-12T00:14:40;20.30;;;18.40;;
67528;SDS011;54366;51.980;5.856;2023-09-12T00:17:14;14.52;;;13.13;;
67528;SDS011;54366;51.980;5.856;2023-09-12T00:19:47;15.23;;;13.87;;
67528;SDS011;54366;51.980;5.856;2023-09-12T00:22:20;11.98;;;10.77;;
67528;SDS011;54366;51.980;5.856;2023-09-12T00:24:53;10.13;;;9.13;;
67528;SDS011;54366;51.980;5.856;2023-09-12T00:27:25;16.30;;;14.70;;
67528;SDS011;54366;51.980;5.856;2023-09-12T00:29:59;19.83;;;17.73;;
67528;SDS011;54366;51.980;5.856;2023-09-12T00:32:32;19.60;;;17.77;;
67528;SDS011;54366;51.980;5.856;2023-09-12T00:35:05;18.13;;;16.23;;
67528;SDS011;54366;51.980;5.856;2023-09-12T00:37:31;18.30;;;16.60;;
67528;SDS011;54366;51.980;5.856;2023-09-12T00:40:05;16.10;;;14.60;;
67528;SDS011;54366;51.980;5.856;2023-09-12T00:42:39;16.25;;;14.68;;
67528;SDS011;54366;51.980;5.856;2023-09-12T00:45:05;18.20;;;16.45;;
67528;SDS011;54366;51.980;5.856;2023-09-12T00:47:39;19.50;;;17.50;;
67528;SDS011;54366;51.980;5.856;2023-09-12T00:50:12;19.63;;;17.23;;
67528;SDS011;54366;51.980;5.856;2023-09-12T00:52:53;17.92;;;16.23;;
67528;SDS011;54366;51.980;5.856;2023-09-12T00:55:34;17.67;;;15.98;;
67528;SDS011;54366;51.980;5.856;2023-09-12T00:58:09;18.90;;;17.05;;
67528;SDS011;54366;51.980;5.856;2023-09-12T01:00:42;13.07;;;11.95;;
67528;SDS011;54366;51.980;5.856;2023-09-12T01:03:15;12.33;;;11.13;;
67528;SDS011;54366;51.980;5.856;2023-09-12T01:05:42;10.07;;;9.15;;
67528;SDS011;54366;51.980;5.856;2023-09-12T01:08:16;12.07;;;10.98;;
67528;SDS011;54366;51.980;5.856;2023-09-12T01:10:42;12.02;;;10.93;;
67528;SDS011;54366;51.980;5.856;2023-09-12T01:13:18;17.17;;;15.57;;
67528;SDS011;54366;51.980;5.856;2023-09-12T01:15:51;20.03;;;18.07;;
67528;SDS011;54366;51.980;5.856;2023-09-12T01:18:24;21.13;;;19.03;;
67528;SDS011;54366;51.980;5.856;2023-09-12T01:27:38;21.08;;;19.08;;
67528;SDS011;54366;51.980;5.856;2023-09-12T01:30:17;21.90;;;19.63;;
67528;SDS011;54366;51.980;5.856;2023-09-12T01:32:52;21.48;;;19.23;;
67528;SDS011;54366;51.980;5.856;2023-09-12T01:35:26;20.30;;;18.23;;
67528;SDS011;54366;51.980;5.856;2023-09-12T01:37:59;18.25;;;16.50;;
67528;SDS011;54366;51.980;5.856;2023-09-12T01:40:37;19.25;;;17.42;;
67528;SDS011;54366;51.980;5.856;2023-09-12T01:43:22;20.67;;;18.67;;
67528;SDS011;54366;51.980;5.856;2023-09-12T01:45:57;19.75;;;17.90;;
67528;SDS011;54366;51.980;5.856;2023-09-12T01:48:26;20.75;;;18.85;;
67528;SDS011;54366;51.980;5.856;2023-09-12T01:51:06;19.75;;;17.80;;
67528;SDS011;54366;51.980;5.856;2023-09-12T01:53:39;17.80;;;16.15;;
67528;SDS011;54366;51.980;5.856;2023-09-12T01:56:18;17.13;;;15.63;;
67528;SDS011;54366;51.980;5.856;2023-09-12T01:58:52;16.73;;;15.13;;
67528;SDS011;54366;51.980;5.856;2023-09-12T02:01:25;16.73;;;15.23;;
67528;SDS011;54366;51.980;5.856;2023-09-12T02:06:25;16.73;;;15.23;;
67528;SDS011;54366;51.980;5.856;2023-09-12T02:08:58;16.00;;;14.55;;
67528;SDS011;54366;51.980;5.856;2023-09-12T02:11:31;15.33;;;13.93;;
67528;SDS011;54366;51.980;5.856;2023-09-12T02:14:04;15.57;;;14.18;;
67528;SDS011;54366;51.980;5.856;2023-09-12T02:16:37;15.57;;;14.13;;
67528;SDS011;54366;51.980;5.856;2023-09-12T02:19:04;11.95;;;10.95;;
67528;SDS011;54366;51.980;5.856;2023-09-12T02:21:38;13.52;;;12.30;;
67528;SDS011;54366;51.980;5.856;2023-09-12T02:24:11;10.75;;;9.65;;
67528;SDS011;54366;51.980;5.856;2023-09-12T02:26:37;14.23;;;12.93;;
67528;SDS011;54366;51.980;5.856;2023-09-12T02:29:10;15.77;;;14.18;;
67528;SDS011;54366;51.980;5.856;2023-09-12T02:31:43;15.52;;;14.02;;
67528;SDS011;54366;51.980;5.856;2023-09-12T02:34:16;12.65;;;11.45;;
67528;SDS011;54366;51.980;5.856;2023-09-12T02:36:42;14.88;;;13.48;;
67528;SDS011;54366;51.980;5.856;2023-09-12T02:39:15;17.10;;;15.38;;
67528;SDS011;54366;51.980;5.856;2023-09-12T02:41:48;16.73;;;15.30;;
67528;SDS011;54366;51.980;5.856;2023-09-12T02:44:21;14.02;;;12.70;;
67528;SDS011;54366;51.980;5.856;2023-09-12T02:46:54;12.32;;;11.23;;
67528;SDS011;54366;51.980;5.856;2023-09-12T02:49:27;16.08;;;14.48;;
67528;SDS011;54366;51.980;5.856;2023-09-12T02:52:13;15.18;;;13.73;;
67528;SDS011;54366;51.980;5.856;2023-09-12T02:54:46;15.85;;;14.38;;
67528;SDS011;54366;51.980;5.856;2023-09-12T02:57:26;16.60;;;14.90;;
67528;SDS011;54366;51.980;5.856;2023-09-12T02:59:52;14.02;;;12.73;;
67528;SDS011;54366;51.980;5.856;2023-09-12T03:02:25;14.38;;;12.98;;
67528;SDS011;54366;51.980;5.856;2023-09-12T03:04:51;12.77;;;11.60;;
67528;SDS011;54366;51.980;5.856;2023-09-12T03:07:25;13.32;;;11.95;;
67528;SDS011;54366;51.980;5.856;2023-09-12T03:09:58;13.73;;;12.45;;
67528;SDS011;54366;51.980;5.856;2023-09-12T03:12:31;14.48;;;13.18;;
67528;SDS011;54366;51.980;5.856;2023-09-12T03:15:04;16.25;;;14.80;;
67528;SDS011;54366;51.980;5.856;2023-09-12T03:17:37;16.10;;;14.57;;
67528;SDS011;54366;51.980;5.856;2023-09-12T03:20:04;13.95;;;12.75;;
67528;SDS011;54366;51.980;5.856;2023-09-12T03:22:41;14.27;;;12.98;;
67528;SDS011;54366;51.980;5.856;2023-09-12T03:25:14;14.27;;;12.98;;
67528;SDS011;54366;51.980;5.856;2023-09-12T03:27:47;14.38;;;13.02;;
67528;SDS011;54366;51.980;5.856;2023-09-12T03:30:20;14.85;;;13.48;;
67528;SDS011;54366;51.980;5.856;2023-09-12T03:32:53;15.63;;;14.23;;
67528;SDS011;54366;51.980;5.856;2023-09-12T03:35:26;15.23;;;13.82;;
67528;SDS011;54366;51.980;5.856;2023-09-12T03:38:00;17.10;;;15.57;;
67528;SDS011;54366;51.980;5.856;2023-09-12T03:40:33;15.57;;;14.13;;
67528;SDS011;54366;51.980;5.856;2023-09-12T03:43:06;13.32;;;12.13;;
67528;SDS011;54366;51.980;5.856;2023-09-12T03:45:39;14.40;;;13.10;;
67528;SDS011;54366;51.980;5.856;2023-09-12T03:48:12;14.60;;;13.20;;
67528;SDS011;54366;51.980;5.856;2023-09-12T03:50:45;15.63;;;14.07;;
67528;SDS011;54366;51.980;5.856;2023-09-12T03:53:18;14.52;;;13.23;;
67528;SDS011;54366;51.980;5.856;2023-09-12T03:55:59;14.45;;;13.07;;
67528;SDS011;54366;51.980;5.856;2023-09-12T03:58:26;14.98;;;13.57;;
67528;SDS011;54366;51.980;5.856;2023-09-12T04:00:59;12.98;;;11.88;;
67528;SDS011;54366;51.980;5.856;2023-09-12T04:03:32;12.52;;;11.30;;
67528;SDS011;54366;51.980;5.856;2023-09-12T04:05:58;10.82;;;9.93;;
67528;SDS011;54366;51.980;5.856;2023-09-12T04:08:31;7.97;;;7.28;;
67528;SDS011;54366;51.980;5.856;2023-09-12T04:11:07;11.75;;;10.63;;
67528;SDS011;54366;51.980;5.856;2023-09-12T04:13:34;13.77;;;12.55;;
67528;SDS011;54366;51.980;5.856;2023-09-12T04:16:07;13.80;;;12.60;;
67528;SDS011;54366;51.980;5.856;2023-09-12T04:18:33;13.60;;;12.40;;
67528;SDS011;54366;51.980;5.856;2023-09-12T04:21:06;10.32;;;9.40;;
67528;SDS011;54366;51.980;5.856;2023-09-12T04:23:39;7.70;;;7.00;;
67528;SDS011;54366;51.980;5.856;2023-09-12T04:26:12;13.40;;;12.13;;
67528;SDS011;54366;51.980;5.856;2023-09-12T04:28:38;15.48;;;14.02;;
67528;SDS011;54366;51.980;5.856;2023-09-12T04:31:11;15.85;;;14.25;;
67528;SDS011;54366;51.980;5.856;2023-09-12T04:33:44;12.27;;;11.05;;
67528;SDS011;54366;51.980;5.856;2023-09-12T04:36:17;15.63;;;14.13;;
67528;SDS011;54366;51.980;5.856;2023-09-12T04:38:50;15.45;;;14.05;;
67528;SDS011;54366;51.980;5.856;2023-09-12T04:41:23;16.17;;;14.68;;
67528;SDS011;54366;51.980;5.856;2023-09-12T04:43:49;15.90;;;14.40;;
67528;SDS011;54366;51.980;5.856;2023-09-12T04:46:22;17.88;;;16.08;;
67528;SDS011;54366;51.980;5.856;2023-09-12T04:48:55;16.70;;;15.10;;
67528;SDS011;54366;51.980;5.856;2023-09-12T04:51:28;15.95;;;14.00;;
67528;SDS011;54366;51.980;5.856;2023-09-12T04:54:01;15.93;;;14.32;;
67528;SDS011;54366;51.980;5.856;2023-09-12T04:56:34;14.73;;;13.32;;
67528;SDS011;54366;51.980;5.856;2023-09-12T04:59:07;15.60;;;13.95;;
67528;SDS011;54366;51.980;5.856;2023-09-12T05:01:40;14.95;;;13.52;;
67528;SDS011;54366;51.980;5.856;2023-09-12T05:04:14;15.60;;;14.02;;
67528;SDS011;54366;51.980;5.856;2023-09-12T05:06:47;13.30;;;11.90;;
67528;SDS011;54366;51.980;5.856;2023-09-12T05:09:20;14.88;;;13.30;;
67528;SDS011;54366;51.980;5.856;2023-09-12T05:11:46;19.95;;;17.83;;
67528;SDS011;54366;51.980;5.856;2023-09-12T05:14:19;15.27;;;13.68;;
67528;SDS011;54366;51.980;5.856;2023-09-12T05:16:46;16.52;;;14.45;;
67528;SDS011;54366;51.980;5.856;2023-09-12T05:19:19;18.23;;;16.17;;
67528;SDS011;54366;51.980;5.856;2023-09-12T05:21:52;18.58;;;16.58;;
67528;SDS011;54366;51.980;5.856;2023-09-12T05:24:25;18.65;;;16.58;;
67528;SDS011;54366;51.980;5.856;2023-09-12T05:26:51;18.67;;;16.77;;
67528;SDS011;54366;51.980;5.856;2023-09-12T05:29:24;19.10;;;16.90;;
67528;SDS011;54366;51.980;5.856;2023-09-12T05:31:57;20.25;;;16.98;;
67528;SDS011;54366;51.980;5.856;2023-09-12T05:34:30;19.60;;;17.50;;
67528;SDS011;54366;51.980;5.856;2023-09-12T05:37:06;18.17;;;16.40;;
67528;SDS011;54366;51.980;5.856;2023-09-12T05:39:39;19.63;;;17.52;;
67528;SDS011;54366;51.980;5.856;2023-09-12T05:42:05;18.80;;;16.88;;
67528;SDS011;54366;51.980;5.856;2023-09-12T05:44:38;20.10;;;18.10;;
67528;SDS011;54366;51.980;5.856;2023-09-12T05:47:11;18.02;;;16.33;;
67528;SDS011;54366;51.980;5.856;2023-09-12T05:49:44;18.48;;;16.63;;
67528;SDS011;54366;51.980;5.856;2023-09-12T05:52:17;16.23;;;14.73;;
67528;SDS011;54366;51.980;5.856;2023-09-12T05:54:50;19.58;;;16.45;;
67528;SDS011;54366;51.980;5.856;2023-09-12T05:57:30;16.77;;;15.05;;
67528;SDS011;54366;51.980;5.856;2023-09-12T05:59:59;17.63;;;15.73;;
67528;SDS011;54366;51.980;5.856;2023-09-12T06:02:38;18.15;;;16.10;;
67528;SDS011;54366;51.980;5.856;2023-09-12T06:05:11;14.68;;;13.18;;
67528;SDS011;54366;51.980;5.856;2023-09-12T06:07:37;11.82;;;10.73;;
67528;SDS011;54366;51.980;5.856;2023-09-12T06:10:12;19.60;;;16.92;;
67528;SDS011;54366;51.980;5.856;2023-09-12T06:12:45;20.38;;;18.27;;
67528;SDS011;54366;51.980;5.856;2023-09-12T06:15:18;18.52;;;16.67;;
67528;SDS011;54366;51.980;5.856;2023-09-12T06:17:51;16.73;;;15.02;;
67528;SDS011;54366;51.980;5.856;2023-09-12T06:20:17;17.10;;;15.35;;
67528;SDS011;54366;51.980;5.856;2023-09-12T06:22:50;19.98;;;17.88;;
67528;SDS011;54366;51.980;5.856;2023-09-12T06:25:23;20.23;;;18.02;;
67528;SDS011;54366;51.980;5.856;2023-09-12T06:27:56;17.15;;;15.45;;
67528;SDS011;54366;51.980;5.856;2023-09-12T06:30:29;19.17;;;17.17;;
67528;SDS011;54366;51.980;5.856;2023-09-12T06:33:02;19.88;;;17.77;;
67528;SDS011;54366;51.980;5.856;2023-09-12T06:35:35;20.38;;;18.38;;
67528;SDS011;54366;51.980;5.856;2023-09-12T06:38:08;19.23;;;17.27;;
67528;SDS011;54366;51.980;5.856;2023-09-12T06:40:42;22.75;;;20.45;;
67528;SDS011;54366;51.980;5.856;2023-09-12T06:45:41;20.10;;;18.00;;
67528;SDS011;54366;51.980;5.856;2023-09-12T06:48:14;21.20;;;19.02;;
67528;SDS011;54366;51.980;5.856;2023-09-12T06:53:22;22.73;;;20.43;;
67528;SDS011;54366;51.980;5.856;2023-09-12T06:55:48;21.17;;;18.88;;
67528;SDS011;54366;51.980;5.856;2023-09-12T06:58:21;24.10;;;21.55;;
67528;SDS011;54366;51.980;5.856;2023-09-12T07:00:54;24.58;;;21.98;;
67528;SDS011;54366;51.980;5.856;2023-09-12T07:03:27;24.45;;;21.88;;
67528;SDS011;54366;51.980;5.856;2023-09-12T07:06:00;26.00;;;22.90;;
67528;SDS011;54366;51.980;5.856;2023-09-12T07:08:28;24.48;;;21.88;;
67528;SDS011;54366;51.980;5.856;2023-09-12T07:11:04;25.02;;;22.40;;
67528;SDS011;54366;51.980;5.856;2023-09-12T07:13:40;26.33;;;23.55;;
67528;SDS011;54366;51.980;5.856;2023-09-12T07:16:13;21.55;;;19.30;;
67528;SDS011;54366;51.980;5.856;2023-09-12T07:18:47;22.67;;;20.27;;
67528;SDS011;54366;51.980;5.856;2023-09-12T07:21:21;24.50;;;21.80;;
67528;SDS011;54366;51.980;5.856;2023-09-12T07:23:54;27.15;;;24.17;;
67528;SDS011;54366;51.980;5.856;2023-09-12T07:26:27;26.33;;;23.40;;
67528;SDS011;54366;51.980;5.856;2023-09-12T07:29:00;26.05;;;23.27;;
67528;SDS011;54366;51.980;5.856;2023-09-12T07:31:28;28.80;;;25.33;;
67528;SDS011;54366;51.980;5.856;2023-09-12T07:34:01;27.05;;;24.25;;
67528;SDS011;54366;51.980;5.856;2023-09-12T07:36:34;29.35;;;26.17;;
67528;SDS011;54366;51.980;5.856;2023-09-12T07:39:00;28.15;;;25.15;;
67528;SDS011;54366;51.980;5.856;2023-09-12T07:41:33;29.15;;;25.35;;
67528;SDS011;54366;51.980;5.856;2023-09-12T07:44:06;22.75;;;20.38;;
67528;SDS011;54366;51.980;5.856;2023-09-12T07:46:43;24.60;;;21.98;;
67528;SDS011;54366;51.980;5.856;2023-09-12T07:49:09;24.27;;;21.73;;
67528;SDS011;54366;51.980;5.856;2023-09-12T07:51:42;25.42;;;22.50;;
67528;SDS011;54366;51.980;5.856;2023-09-12T07:54:21;25.23;;;22.60;;
67528;SDS011;54366;51.980;5.856;2023-09-12T07:57:01;25.02;;;22.35;;
67528;SDS011;54366;51.980;5.856;2023-09-12T07:59:27;28.45;;;25.40;;
67528;SDS011;54366;51.980;5.856;2023-09-12T08:02:00;27.38;;;24.33;;
67528;SDS011;54366;51.980;5.856;2023-09-12T08:04:33;19.48;;;17.42;;
67528;SDS011;54366;51.980;5.856;2023-09-12T08:06:59;23.27;;;20.80;;
67528;SDS011;54366;51.980;5.856;2023-09-12T08:09:52;23.67;;;21.30;;
67528;SDS011;54366;51.980;5.856;2023-09-12T08:12:29;26.40;;;23.60;;
67528;SDS011;54366;51.980;5.856;2023-09-12T08:14:55;28.30;;;23.88;;
67528;SDS011;54366;51.980;5.856;2023-09-12T08:17:29;31.48;;;27.83;;
67528;SDS011;54366;51.980;5.856;2023-09-12T08:20:02;23.08;;;20.67;;
67528;SDS011;54366;51.980;5.856;2023-09-12T08:22:36;23.00;;;20.43;;
67528;SDS011;54366;51.980;5.856;2023-09-12T08:25:02;24.50;;;21.90;;
67528;SDS011;54366;51.980;5.856;2023-09-12T08:27:36;31.10;;;27.80;;
67528;SDS011;54366;51.980;5.856;2023-09-12T08:30:09;29.23;;;25.13;;
67528;SDS011;54366;51.980;5.856;2023-09-12T08:32:38;28.05;;;24.88;;
67528;SDS011;54366;51.980;5.856;2023-09-12T08:35:15;27.38;;;24.48;;
67528;SDS011;54366;51.980;5.856;2023-09-12T08:37:48;28.23;;;25.20;;
67528;SDS011;54366;51.980;5.856;2023-09-12T08:40:21;27.17;;;24.08;;
67528;SDS011;54366;51.980;5.856;2023-09-12T08:45:29;24.50;;;21.98;;
67528;SDS011;54366;51.980;5.856;2023-09-12T08:48:02;24.80;;;22.20;;
67528;SDS011;54366;51.980;5.856;2023-09-12T08:50:30;28.25;;;25.20;;
67528;SDS011;54366;51.980;5.856;2023-09-12T08:53:06;30.98;;;27.67;;
67528;SDS011;54366;51.980;5.856;2023-09-12T08:55:45;22.33;;;20.00;;
67528;SDS011;54366;51.980;5.856;2023-09-12T08:58:18;22.35;;;20.05;;
67528;SDS011;54366;51.980;5.856;2023-09-12T09:00:46;25.17;;;22.20;;
67528;SDS011;54366;51.980;5.856;2023-09-12T09:03:19;27.05;;;24.20;;
67528;SDS011;54366;51.980;5.856;2023-09-12T09:05:54;25.63;;;22.90;;
67528;SDS011;54366;51.980;5.856;2023-09-12T09:08:28;17.58;;;15.82;;
67528;SDS011;54366;51.980;5.856;2023-09-12T09:10:59;19.95;;;17.92;;
67528;SDS011;54366;51.980;5.856;2023-09-12T09:13:38;21.25;;;18.95;;
67528;SDS011;54366;51.980;5.856;2023-09-12T09:16:11;24.35;;;21.85;;
67528;SDS011;54366;51.980;5.856;2023-09-12T09:18:52;24.88;;;20.88;;
67528;SDS011;54366;51.980;5.856;2023-09-12T09:21:28;23.17;;;20.88;;
67528;SDS011;54366;51.980;5.856;2023-09-12T09:24:07;20.15;;;18.05;;
67528;SDS011;54366;51.980;5.856;2023-09-12T09:26:44;13.93;;;12.43;;
67528;SDS011;54366;51.980;5.856;2023-09-12T09:29:22;20.67;;;18.48;;
67528;SDS011;54366;51.980;5.856;2023-09-12T09:31:49;17.80;;;15.88;;
67528;SDS011;54366;51.980;5.856;2023-09-12T09:34:23;14.50;;;13.10;;
67528;SDS011;54366;51.980;5.856;2023-09-12T09:36:56;17.87;;;16.00;;
67528;SDS011;54366;51.980;5.856;2023-09-12T09:39:29;16.47;;;14.77;;
67528;SDS011;54366;51.980;5.856;2023-09-12T09:42:02;17.97;;;16.17;;
67528;SDS011;54366;51.980;5.856;2023-09-12T09:44:35;17.77;;;16.07;;
67528;SDS011;54366;51.980;5.856;2023-09-12T09:47:02;16.58;;;14.88;;
67528;SDS011;54366;51.980;5.856;2023-09-12T09:49:35;19.50;;;17.58;;
67528;SDS011;54366;51.980;5.856;2023-09-12T09:52:04;16.95;;;15.20;;
67528;SDS011;54366;51.980;5.856;2023-09-12T09:54:42;16.08;;;14.40;;
67528;SDS011;54366;51.980;5.856;2023-09-12T09:57:17;17.33;;;15.57;;
67528;SDS011;54366;51.980;5.856;2023-09-12T09:59:57;20.33;;;18.13;;
67528;SDS011;54366;51.980;5.856;2023-09-12T10:02:31;17.45;;;15.73;;
67528;SDS011;54366;51.980;5.856;2023-09-12T10:04:57;13.95;;;12.50;;
67528;SDS011;54366;51.980;5.856;2023-09-12T10:07:32;10.77;;;9.68;;
67528;SDS011;54366;51.980;5.856;2023-09-12T10:10:06;10.60;;;9.63;;
67528;SDS011;54366;51.980;5.856;2023-09-12T10:12:43;9.90;;;9.00;;
67528;SDS011;54366;51.980;5.856;2023-09-12T10:15:27;10.68;;;9.68;;
67528;SDS011;54366;51.980;5.856;2023-09-12T10:18:04;11.07;;;9.98;;
67528;SDS011;54366;51.980;5.856;2023-09-12T10:20:58;11.55;;;10.35;;
67528;SDS011;54366;51.980;5.856;2023-09-12T10:23:41;11.02;;;9.88;;
67528;SDS011;54366;51.980;5.856;2023-09-12T10:26:17;9.07;;;8.18;;
67528;SDS011;54366;51.980;5.856;2023-09-12T10:28:51;9.10;;;8.23;;
67528;SDS011;54366;51.980;5.856;2023-09-12T10:31:18;8.40;;;7.60;;
67528;SDS011;54366;51.980;5.856;2023-09-12T10:33:51;11.02;;;9.40;;
67528;SDS011;54366;51.980;5.856;2023-09-12T10:36:26;9.50;;;8.60;;
67528;SDS011;54366;51.980;5.856;2023-09-12T10:38:54;10.65;;;9.65;;
67528;SDS011;54366;51.980;5.856;2023-09-12T10:41:29;7.95;;;7.20;;
67528;SDS011;54366;51.980;5.856;2023-09-12T10:43:56;8.57;;;7.65;;
67528;SDS011;54366;51.980;5.856;2023-09-12T10:46:31;8.57;;;7.78;;
67528;SDS011;54366;51.980;5.856;2023-09-12T10:49:07;9.70;;;8.70;;
67528;SDS011;54366;51.980;5.856;2023-09-12T10:51:41;11.45;;;10.38;;
67528;SDS011;54366;51.980;5.856;2023-09-12T10:54:23;7.32;;;6.63;;
67528;SDS011;54366;51.980;5.856;2023-09-12T10:57:18;9.70;;;8.73;;
67528;SDS011;54366;51.980;5.856;2023-09-12T11:02:51;8.50;;;7.78;;
67528;SDS011;54366;51.980;5.856;2023-09-12T11:08:24;8.88;;;7.97;;
67528;SDS011;54366;51.980;5.856;2023-09-12T11:14:08;11.77;;;10.27;;
67528;SDS011;54366;51.980;5.856;2023-09-12T11:16:42;7.25;;;6.65;;
67528;SDS011;54366;51.980;5.856;2023-09-12T11:19:16;7.03;;;6.32;;
67528;SDS011;54366;51.980;5.856;2023-09-12T11:21:55;8.27;;;7.47;;
67528;SDS011;54366;51.980;5.856;2023-09-12T11:27:16;8.38;;;7.57;;
67528;SDS011;54366;51.980;5.856;2023-09-12T11:29:43;8.13;;;7.32;;
67528;SDS011;54366;51.980;5.856;2023-09-12T11:35:24;8.32;;;7.53;;
67528;SDS011;54366;51.980;5.856;2023-09-12T11:37:59;8.07;;;7.28;;
67528;SDS011;54366;51.980;5.856;2023-09-12T11:40:41;7.43;;;6.75;;
67528;SDS011;54366;51.980;5.856;2023-09-12T11:45:54;7.47;;;6.78;;
67528;SDS011;54366;51.980;5.856;2023-09-12T11:48:21;6.68;;;6.03;;
67528;SDS011;54366;51.980;5.856;2023-09-12T11:50:55;8.43;;;7.65;;
67528;SDS011;54366;51.980;5.856;2023-09-12T11:53:28;7.30;;;6.40;;
67528;SDS011;54366;51.980;5.856;2023-09-12T11:56:09;7.63;;;6.93;;
67528;SDS011;54366;51.980;5.856;2023-09-12T11:58:42;8.70;;;7.80;;
67528;SDS011;54366;51.980;5.856;2023-09-12T12:01:22;8.95;;;8.10;;
67528;SDS011;54366;51.980;5.856;2023-09-12T12:03:48;7.60;;;6.90;;
67528;SDS011;54366;51.980;5.856;2023-09-12T12:06:25;12.48;;;11.07;;
67528;SDS011;54366;51.980;5.856;2023-09-12T12:08:58;9.07;;;8.02;;
67528;SDS011;54366;51.980;5.856;2023-09-12T12:11:28;6.80;;;6.10;;
67528;SDS011;54366;51.980;5.856;2023-09-12T12:14:16;6.28;;;5.68;;
67528;SDS011;54366;51.980;5.856;2023-09-12T12:16:49;7.80;;;6.90;;
67528;SDS011;54366;51.980;5.856;2023-09-12T12:19:22;7.43;;;6.70;;
67528;SDS011;54366;51.980;5.856;2023-09-12T12:21:55;6.10;;;5.47;;
67528;SDS011;54366;51.980;5.856;2023-09-12T12:24:21;5.35;;;4.95;;
67528;SDS011;54366;51.980;5.856;2023-09-12T12:26:59;7.03;;;6.32;;
67528;SDS011;54366;51.980;5.856;2023-09-12T12:29:33;6.25;;;5.30;;
67528;SDS011;54366;51.980;5.856;2023-09-12T12:32:01;6.00;;;5.50;;
67528;SDS011;54366;51.980;5.856;2023-09-12T12:34:34;6.43;;;5.82;;
67528;SDS011;54366;51.980;5.856;2023-09-12T12:37:07;4.90;;;4.50;;
67528;SDS011;54366;51.980;5.856;2023-09-12T12:39:44;5.28;;;4.55;;
67528;SDS011;54366;51.980;5.856;2023-09-12T12:42:17;5.00;;;4.60;;
67528;SDS011;54366;51.980;5.856;2023-09-12T12:44:54;6.70;;;6.10;;
67528;SDS011;54366;51.980;5.856;2023-09-12T12:47:27;7.47;;;6.78;;
67528;SDS011;54366;51.980;5.856;2023-09-12T12:50:01;6.60;;;5.97;;
67528;SDS011;54366;51.980;5.856;2023-09-12T12:52:34;7.43;;;6.72;;
67528;SDS011;54366;51.980;5.856;2023-09-12T12:55:03;6.25;;;5.65;;
67528;SDS011;54366;51.980;5.856;2023-09-12T12:57:48;4.75;;;4.35;;
67528;SDS011;54366;51.980;5.856;2023-09-12T13:00:21;5.50;;;5.00;;
67528;SDS011;54366;51.980;5.856;2023-09-12T13:02:49;5.00;;;4.60;;
67528;SDS011;54366;51.980;5.856;2023-09-12T13:05:28;4.35;;;3.95;;
67528;SDS011;54366;51.980;5.856;2023-09-12T13:08:02;4.88;;;4.10;;
67528;SDS011;54366;51.980;5.856;2023-09-12T13:10:35;5.50;;;5.00;;
67528;SDS011;54366;51.980;5.856;2023-09-12T13:13:09;5.63;;;5.13;;
67528;SDS011;54366;51.980;5.856;2023-09-12T13:15:43;4.32;;;3.95;;
67528;SDS011;54366;51.980;5.856;2023-09-12T13:18:16;4.25;;;3.85;;
67528;SDS011;54366;51.980;5.856;2023-09-12T13:20:49;4.13;;;3.80;;
67528;SDS011;54366;51.980;5.856;2023-09-12T13:23:22;4.38;;;3.97;;
67528;SDS011;54366;51.980;5.856;2023-09-12T13:25:56;4.93;;;3.83;;
67528;SDS011;54366;51.980;5.856;2023-09-12T13:28:29;3.25;;;3.03;;
67528;SDS011;54366;51.980;5.856;2023-09-12T13:30:56;2.70;;;2.50;;
67528;SDS011;54366;51.980;5.856;2023-09-12T13:33:30;2.47;;;2.30;;
67528;SDS011;54366;51.980;5.856;2023-09-12T13:35:57;3.47;;;3.17;;
67528;SDS011;54366;51.980;5.856;2023-09-12T13:38:30;2.70;;;2.50;;
67528;SDS011;54366;51.980;5.856;2023-09-12T13:41:03;2.83;;;2.63;;
67528;SDS011;54366;51.980;5.856;2023-09-12T13:43:36;3.13;;;2.83;;
67528;SDS011;54366;51.980;5.856;2023-09-12T13:46:09;3.53;;;3.25;;
67528;SDS011;54366;51.980;5.856;2023-09-12T13:48:35;3.60;;;3.30;;
67528;SDS011;54366;51.980;5.856;2023-09-12T13:51:08;4.20;;;3.80;;
67528;SDS011;54366;51.980;5.856;2023-09-12T13:53:34;3.60;;;3.30;;
67528;SDS011;54366;51.980;5.856;2023-09-12T13:56:07;4.43;;;4.03;;
67528;SDS011;54366;51.980;5.856;2023-09-12T13:58:53;3.92;;;3.63;;
67528;SDS011;54366;51.980;5.856;2023-09-12T14:01:26;3.90;;;3.15;;
67528;SDS011;54366;51.980;5.856;2023-09-12T14:03:59;3.33;;;3.00;;
67528;SDS011;54366;51.980;5.856;2023-09-12T14:06:25;2.95;;;2.75;;
67528;SDS011;54366;51.980;5.856;2023-09-12T14:08:58;3.43;;;3.10;;
67528;SDS011;54366;51.980;5.856;2023-09-12T14:11:31;3.00;;;2.80;;
67528;SDS011;54366;51.980;5.856;2023-09-12T14:13:57;3.00;;;2.80;;
67528;SDS011;54366;51.980;5.856;2023-09-12T14:16:30;3.97;;;3.57;;
67528;SDS011;54366;51.980;5.856;2023-09-12T14:19:03;3.20;;;3.00;;
67528;SDS011;54366;51.980;5.856;2023-09-12T14:21:36;4.00;;;3.70;;
67528;SDS011;54366;51.980;5.856;2023-09-12T14:24:09;3.05;;;2.85;;
67528;SDS011;54366;51.980;5.856;2023-09-12T14:26:42;2.72;;;2.53;;
67528;SDS011;54366;51.980;5.856;2023-09-12T14:29:08;2.95;;;2.65;;
67528;SDS011;54366;51.980;5.856;2023-09-12T14:31:43;3.88;;;2.97;;
67528;SDS011;54366;51.980;5.856;2023-09-12T14:34:22;3.28;;;2.97;;
67528;SDS011;54366;51.980;5.856;2023-09-12T14:37:01;3.20;;;2.90;;
67528;SDS011;54366;51.980;5.856;2023-09-12T14:39:34;3.60;;;3.30;;
67528;SDS011;54366;51.980;5.856;2023-09-12T14:42:07;2.58;;;2.38;;
67528;SDS011;54366;51.980;5.856;2023-09-12T14:44:44;3.13;;;2.88;;
67528;SDS011;54366;51.980;5.856;2023-09-12T14:47:17;2.70;;;2.33;;
67528;SDS011;54366;51.980;5.856;2023-09-12T14:49:50;3.55;;;3.25;;
67528;SDS011;54366;51.980;5.856;2023-09-12T14:52:23;3.28;;;3.05;;
67528;SDS011;54366;51.980;5.856;2023-09-12T14:54:58;7.10;;;6.40;;
67528;SDS011;54366;51.980;5.856;2023-09-12T14:57:25;6.15;;;4.45;;
67528;SDS011;54366;51.980;5.856;2023-09-12T14:59:58;4.00;;;3.70;;
67528;SDS011;54366;51.980;5.856;2023-09-12T15:02:32;3.88;;;3.58;;
67528;SDS011;54366;51.980;5.856;2023-09-12T15:05:05;4.05;;;3.75;;
67528;SDS011;54366;51.980;5.856;2023-09-12T15:07:38;6.45;;;5.85;;
67528;SDS011;54366;51.980;5.856;2023-09-12T15:10:04;4.75;;;4.30;;
67528;SDS011;54366;51.980;5.856;2023-09-12T15:12:38;4.15;;;3.75;;
67528;SDS011;54366;51.980;5.856;2023-09-12T15:15:11;3.80;;;3.47;;
67528;SDS011;54366;51.980;5.856;2023-09-12T15:17:44;4.53;;;4.10;;
67528;SDS011;54366;51.980;5.856;2023-09-12T15:20:17;4.50;;;4.10;;
67528;SDS011;54366;51.980;5.856;2023-09-12T15:22:50;4.10;;;3.70;;
67528;SDS011;54366;51.980;5.856;2023-09-12T15:25:23;3.70;;;3.40;;
67528;SDS011;54366;51.980;5.856;2023-09-12T15:27:56;4.35;;;3.95;;
67528;SDS011;54366;51.980;5.856;2023-09-12T15:30:29;3.40;;;3.10;;
67528;SDS011;54366;51.980;5.856;2023-09-12T15:33:02;3.30;;;3.00;;
67528;SDS011;54366;51.980;5.856;2023-09-12T15:35:35;4.30;;;4.00;;
67528;SDS011;54366;51.980;5.856;2023-09-12T15:38:08;3.05;;;2.85;;
67528;SDS011;54366;51.980;5.856;2023-09-12T15:40:41;3.08;;;2.88;;